sensor_id;sensor_type;location;lat;lon;timestamp;P1;durP1;ratioP1;P2;durP2;ratioP2
12966;SDS011;6548;49.996;8.238;2023-02-28T00:00:12;2.00;;;1.80;;
12966;SDS011;6548;49.996;8.238;2023-02-28T00:02:39;3.88;;;1.90;;
12966;SDS011;6548;49.996;8.238;2023-02-28T00:05:06;2.08;;;1.85;;
12966;SDS011;6548;49.996;8.238;2023-02-28T00:07:32;2.47;;;1.98;;
12966;SDS011;6548;49.996;8.238;2023-02-28T00:09:58;2.28;;;2.00;;
12966;SDS011;6548;49.996;8.238;2023-02-28T00:12:24;2.63;;;1.83;;
12966;SDS011;6548;49.996;8.238;2023-02-28T00:14:52;2.17;;;1.77;;
12966;SDS011;6548;49.996;8.238;2023-02-28T00:17:17;1.80;;;1.45;;
12966;SDS011;6548;49.996;8.238;2023-02-28T00:19:46;2.20;;;1.92;;
12966;SDS011;6548;49.996;8.238;2023-02-28T00:22:12;5.25;;;2.30;;
12966;SDS011;6548;49.996;8.238;2023-02-28T00:24:38;1.67;;;1.58;;
12966;SDS011;6548;49.996;8.238;2023-02-28T00:27:04;3.97;;;2.17;;
12966;SDS011;6548;49.996;8.238;2023-02-28T00:29:29;3.60;;;1.88;;
12966;SDS011;6548;49.996;8.238;2023-02-28T00:31:55;2.92;;;2.10;;
12966;SDS011;6548;49.996;8.238;2023-02-28T00:34:20;3.17;;;1.90;;
12966;SDS011;6548;49.996;8.238;2023-02-28T00:36:46;3.38;;;2.78;;
12966;SDS011;6548;49.996;8.238;2023-02-28T00:39:13;4.47;;;2.20;;
12966;SDS011;6548;49.996;8.238;2023-02-28T00:41:39;2.67;;;1.88;;
12966;SDS011;6548;49.996;8.238;2023-02-28T00:44:05;2.47;;;2.28;;
12966;SDS011;6548;49.996;8.238;2023-02-28T00:46:30;3.15;;;2.20;;
12966;SDS011;6548;49.996;8.238;2023-02-28T00:48:56;3.72;;;2.65;;
12966;SDS011;6548;49.996;8.238;2023-02-28T00:51:21;4.60;;;2.58;;
12966;SDS011;6548;49.996;8.238;2023-02-28T00:53:47;3.08;;;2.08;;
12966;SDS011;6548;49.996;8.238;2023-02-28T00:56:12;2.35;;;1.90;;
12966;SDS011;6548;49.996;8.238;2023-02-28T00:58:38;4.03;;;2.38;;
12966;SDS011;6548;49.996;8.238;2023-02-28T01:01:04;3.92;;;1.90;;
12966;SDS011;6548;49.996;8.238;2023-02-28T01:03:30;2.80;;;2.17;;
12966;SDS011;6548;49.996;8.238;2023-02-28T01:05:56;2.72;;;1.92;;
12966;SDS011;6548;49.996;8.238;2023-02-28T01:08:21;2.90;;;2.17;;
12966;SDS011;6548;49.996;8.238;2023-02-28T01:10:47;2.60;;;2.30;;
12966;SDS011;6548;49.996;8.238;2023-02-28T01:13:13;3.15;;;2.45;;
12966;SDS011;6548;49.996;8.238;2023-02-28T01:15:40;4.57;;;2.72;;
12966;SDS011;6548;49.996;8.238;2023-02-28T01:18:08;3.50;;;2.15;;
12966;SDS011;6548;49.996;8.238;2023-02-28T01:20:36;3.63;;;2.50;;
12966;SDS011;6548;49.996;8.238;2023-02-28T01:23:02;5.65;;;2.60;;
12966;SDS011;6548;49.996;8.238;2023-02-28T01:25:28;3.60;;;2.60;;
12966;SDS011;6548;49.996;8.238;2023-02-28T01:27:53;4.85;;;2.70;;
12966;SDS011;6548;49.996;8.238;2023-02-28T01:30:19;5.05;;;2.40;;
12966;SDS011;6548;49.996;8.238;2023-02-28T01:32:44;4.88;;;3.08;;
12966;SDS011;6548;49.996;8.238;2023-02-28T01:35:10;5.32;;;3.15;;
12966;SDS011;6548;49.996;8.238;2023-02-28T01:37:36;2.88;;;2.38;;
12966;SDS011;6548;49.996;8.238;2023-02-28T01:40:01;4.20;;;2.40;;
12966;SDS011;6548;49.996;8.238;2023-02-28T01:42:27;4.88;;;2.60;;
12966;SDS011;6548;49.996;8.238;2023-02-28T01:44:58;3.53;;;2.50;;
12966;SDS011;6548;49.996;8.238;2023-02-28T01:47:34;4.13;;;2.55;;
12966;SDS011;6548;49.996;8.238;2023-02-28T01:50:06;5.18;;;2.47;;
12966;SDS011;6548;49.996;8.238;2023-02-28T01:55:03;3.25;;;2.88;;
12966;SDS011;6548;49.996;8.238;2023-02-28T01:57:35;3.85;;;3.00;;
12966;SDS011;6548;49.996;8.238;2023-02-28T02:00:16;3.42;;;2.78;;
12966;SDS011;6548;49.996;8.238;2023-02-28T02:02:45;4.38;;;2.88;;
12966;SDS011;6548;49.996;8.238;2023-02-28T02:05:17;4.43;;;3.22;;
12966;SDS011;6548;49.996;8.238;2023-02-28T02:10:16;5.80;;;3.17;;
12966;SDS011;6548;49.996;8.238;2023-02-28T02:15:34;5.00;;;2.70;;
12966;SDS011;6548;49.996;8.238;2023-02-28T02:18:14;5.20;;;3.25;;
12966;SDS011;6548;49.996;8.238;2023-02-28T02:33:03;5.32;;;3.47;;
12966;SDS011;6548;49.996;8.238;2023-02-28T02:35:52;7.03;;;3.30;;
12966;SDS011;6548;49.996;8.238;2023-02-28T02:38:31;3.67;;;2.88;;
12966;SDS011;6548;49.996;8.238;2023-02-28T02:41:20;4.93;;;3.03;;
12966;SDS011;6548;49.996;8.238;2023-02-28T02:43:53;5.13;;;3.00;;
12966;SDS011;6548;49.996;8.238;2023-02-28T02:46:28;3.88;;;3.13;;
12966;SDS011;6548;49.996;8.238;2023-02-28T02:48:59;3.97;;;3.08;;
12966;SDS011;6548;49.996;8.238;2023-02-28T02:51:29;4.10;;;3.05;;
12966;SDS011;6548;49.996;8.238;2023-02-28T02:53:58;5.50;;;3.38;;
12966;SDS011;6548;49.996;8.238;2023-02-28T02:56:55;3.42;;;2.80;;
12966;SDS011;6548;49.996;8.238;2023-02-28T02:59:24;2.92;;;2.40;;
12966;SDS011;6548;49.996;8.238;2023-02-28T03:01:55;3.78;;;2.88;;
12966;SDS011;6548;49.996;8.238;2023-02-28T03:04:25;3.83;;;2.65;;
12966;SDS011;6548;49.996;8.238;2023-02-28T03:06:55;4.43;;;2.97;;
12966;SDS011;6548;49.996;8.238;2023-02-28T03:09:24;4.70;;;2.97;;
12966;SDS011;6548;49.996;8.238;2023-02-28T03:11:52;3.25;;;2.53;;
12966;SDS011;6548;49.996;8.238;2023-02-28T03:14:25;5.93;;;3.05;;
12966;SDS011;6548;49.996;8.238;2023-02-28T03:17:15;5.07;;;2.75;;
12966;SDS011;6548;49.996;8.238;2023-02-28T03:22:45;6.43;;;2.70;;
12966;SDS011;6548;49.996;8.238;2023-02-28T03:30:33;3.95;;;2.72;;
12966;SDS011;6548;49.996;8.238;2023-02-28T03:33:08;4.97;;;2.67;;
12966;SDS011;6548;49.996;8.238;2023-02-28T03:35:43;4.32;;;3.05;;
12966;SDS011;6548;49.996;8.238;2023-02-28T03:38:24;2.28;;;2.08;;
12966;SDS011;6548;49.996;8.238;2023-02-28T03:41:05;3.88;;;2.08;;
12966;SDS011;6548;49.996;8.238;2023-02-28T03:43:41;3.53;;;2.35;;
12966;SDS011;6548;49.996;8.238;2023-02-28T03:48:40;3.35;;;2.15;;
12966;SDS011;6548;49.996;8.238;2023-02-28T03:51:17;4.55;;;2.83;;
12966;SDS011;6548;49.996;8.238;2023-02-28T03:56:20;4.25;;;2.20;;
12966;SDS011;6548;49.996;8.238;2023-02-28T03:59:00;3.28;;;2.58;;
12966;SDS011;6548;49.996;8.238;2023-02-28T04:01:43;2.78;;;2.03;;
12966;SDS011;6548;49.996;8.238;2023-02-28T04:04:10;3.78;;;2.47;;
12966;SDS011;6548;49.996;8.238;2023-02-28T04:06:37;5.28;;;2.55;;
12966;SDS011;6548;49.996;8.238;2023-02-28T04:09:04;4.30;;;2.72;;
12966;SDS011;6548;49.996;8.238;2023-02-28T04:14:03;2.63;;;2.00;;
12966;SDS011;6548;49.996;8.238;2023-02-28T04:16:30;3.65;;;2.58;;
12966;SDS011;6548;49.996;8.238;2023-02-28T04:18:57;5.07;;;2.72;;
12966;SDS011;6548;49.996;8.238;2023-02-28T04:21:28;2.33;;;2.13;;
12966;SDS011;6548;49.996;8.238;2023-02-28T04:23:54;4.03;;;2.13;;
12966;SDS011;6548;49.996;8.238;2023-02-28T04:26:20;2.97;;;2.45;;
12966;SDS011;6548;49.996;8.238;2023-02-28T04:28:46;5.60;;;2.92;;
12966;SDS011;6548;49.996;8.238;2023-02-28T04:31:11;3.00;;;1.95;;
12966;SDS011;6548;49.996;8.238;2023-02-28T04:33:37;4.10;;;3.28;;
12966;SDS011;6548;49.996;8.238;2023-02-28T04:36:03;3.25;;;2.55;;
12966;SDS011;6548;49.996;8.238;2023-02-28T04:38:33;2.88;;;2.35;;
12966;SDS011;6548;49.996;8.238;2023-02-28T04:41:03;3.90;;;2.55;;
12966;SDS011;6548;49.996;8.238;2023-02-28T04:43:29;2.58;;;1.98;;
12966;SDS011;6548;49.996;8.238;2023-02-28T04:45:57;2.85;;;1.90;;
12966;SDS011;6548;49.996;8.238;2023-02-28T04:48:27;5.22;;;2.28;;
12966;SDS011;6548;49.996;8.238;2023-02-28T04:50:53;3.50;;;3.20;;
12966;SDS011;6548;49.996;8.238;2023-02-28T04:53:19;2.95;;;2.10;;
12966;SDS011;6548;49.996;8.238;2023-02-28T04:55:45;5.38;;;3.05;;
12966;SDS011;6548;49.996;8.238;2023-02-28T04:58:11;1.92;;;1.38;;
12966;SDS011;6548;49.996;8.238;2023-02-28T05:00:39;2.55;;;2.00;;
12966;SDS011;6548;49.996;8.238;2023-02-28T05:03:04;3.85;;;2.25;;
12966;SDS011;6548;49.996;8.238;2023-02-28T05:05:30;3.97;;;2.47;;
12966;SDS011;6548;49.996;8.238;2023-02-28T05:07:56;2.75;;;2.30;;
12966;SDS011;6548;49.996;8.238;2023-02-28T05:10:22;2.95;;;1.92;;
12966;SDS011;6548;49.996;8.238;2023-02-28T05:12:47;2.28;;;1.65;;
12966;SDS011;6548;49.996;8.238;2023-02-28T05:15:13;4.63;;;2.50;;
12966;SDS011;6548;49.996;8.238;2023-02-28T05:17:40;4.18;;;2.38;;
12966;SDS011;6548;49.996;8.238;2023-02-28T05:20:06;2.83;;;2.10;;
12966;SDS011;6548;49.996;8.238;2023-02-28T05:22:34;2.15;;;1.67;;
12966;SDS011;6548;49.996;8.238;2023-02-28T05:24:59;3.00;;;2.63;;
12966;SDS011;6548;49.996;8.238;2023-02-28T05:27:25;3.28;;;2.30;;
12966;SDS011;6548;49.996;8.238;2023-02-28T05:29:53;4.38;;;1.77;;
12966;SDS011;6548;49.996;8.238;2023-02-28T05:32:18;3.03;;;2.08;;
12966;SDS011;6548;49.996;8.238;2023-02-28T05:34:44;6.40;;;2.67;;
12966;SDS011;6548;49.996;8.238;2023-02-28T05:37:13;1.95;;;1.30;;
12966;SDS011;6548;49.996;8.238;2023-02-28T05:39:40;3.30;;;2.35;;
12966;SDS011;6548;49.996;8.238;2023-02-28T05:42:06;2.97;;;1.98;;
12966;SDS011;6548;49.996;8.238;2023-02-28T05:44:31;2.63;;;2.05;;
12966;SDS011;6548;49.996;8.238;2023-02-28T05:46:58;2.33;;;1.63;;
12966;SDS011;6548;49.996;8.238;2023-02-28T05:49:23;5.47;;;2.10;;
12966;SDS011;6548;49.996;8.238;2023-02-28T05:51:49;3.83;;;2.80;;
12966;SDS011;6548;49.996;8.238;2023-02-28T05:54:14;3.25;;;1.98;;
12966;SDS011;6548;49.996;8.238;2023-02-28T05:56:40;5.20;;;2.28;;
12966;SDS011;6548;49.996;8.238;2023-02-28T05:59:08;2.40;;;1.67;;
12966;SDS011;6548;49.996;8.238;2023-02-28T06:01:41;2.70;;;2.35;;
12966;SDS011;6548;49.996;8.238;2023-02-28T06:04:13;3.05;;;1.95;;
12966;SDS011;6548;49.996;8.238;2023-02-28T06:06:46;2.95;;;2.00;;
12966;SDS011;6548;49.996;8.238;2023-02-28T06:09:12;6.78;;;2.83;;
12966;SDS011;6548;49.996;8.238;2023-02-28T06:11:38;5.30;;;2.45;;
12966;SDS011;6548;49.996;8.238;2023-02-28T06:14:04;5.07;;;2.50;;
12966;SDS011;6548;49.996;8.238;2023-02-28T06:16:30;3.85;;;2.45;;
12966;SDS011;6548;49.996;8.238;2023-02-28T06:18:57;3.15;;;1.63;;
12966;SDS011;6548;49.996;8.238;2023-02-28T06:21:25;5.25;;;2.50;;
12966;SDS011;6548;49.996;8.238;2023-02-28T06:23:52;4.70;;;2.42;;
12966;SDS011;6548;49.996;8.238;2023-02-28T06:26:18;3.10;;;1.95;;
12966;SDS011;6548;49.996;8.238;2023-02-28T06:28:44;3.05;;;2.22;;
12966;SDS011;6548;49.996;8.238;2023-02-28T06:31:10;4.50;;;2.50;;
12966;SDS011;6548;49.996;8.238;2023-02-28T06:33:38;3.63;;;2.50;;
12966;SDS011;6548;49.996;8.238;2023-02-28T06:36:04;3.42;;;2.03;;
12966;SDS011;6548;49.996;8.238;2023-02-28T06:38:30;2.40;;;2.20;;
12966;SDS011;6548;49.996;8.238;2023-02-28T06:40:57;4.05;;;2.70;;
12966;SDS011;6548;49.996;8.238;2023-02-28T06:43:25;4.55;;;1.30;;
12966;SDS011;6548;49.996;8.238;2023-02-28T06:45:54;3.65;;;2.10;;
12966;SDS011;6548;49.996;8.238;2023-02-28T06:48:20;4.38;;;1.90;;
12966;SDS011;6548;49.996;8.238;2023-02-28T06:50:46;4.97;;;2.20;;
12966;SDS011;6548;49.996;8.238;2023-02-28T06:53:12;2.15;;;1.70;;
12966;SDS011;6548;49.996;8.238;2023-02-28T06:55:38;5.10;;;2.35;;
12966;SDS011;6548;49.996;8.238;2023-02-28T06:58:04;3.97;;;2.10;;
12966;SDS011;6548;49.996;8.238;2023-02-28T07:00:43;3.42;;;1.35;;
12966;SDS011;6548;49.996;8.238;2023-02-28T07:03:10;6.30;;;2.35;;
12966;SDS011;6548;49.996;8.238;2023-02-28T07:05:37;3.63;;;1.65;;
12966;SDS011;6548;49.996;8.238;2023-02-28T07:08:04;4.00;;;2.08;;
12966;SDS011;6548;49.996;8.238;2023-02-28T07:10:31;3.40;;;1.98;;
12966;SDS011;6548;49.996;8.238;2023-02-28T07:13:02;2.95;;;1.85;;
12966;SDS011;6548;49.996;8.238;2023-02-28T07:15:29;2.20;;;2.00;;
12966;SDS011;6548;49.996;8.238;2023-02-28T07:17:55;10.32;;;2.10;;
12966;SDS011;6548;49.996;8.238;2023-02-28T07:20:21;1.98;;;1.65;;
12966;SDS011;6548;49.996;8.238;2023-02-28T07:22:48;3.38;;;1.95;;
12966;SDS011;6548;49.996;8.238;2023-02-28T07:25:20;4.20;;;2.38;;
12966;SDS011;6548;49.996;8.238;2023-02-28T07:27:47;3.03;;;2.03;;
12966;SDS011;6548;49.996;8.238;2023-02-28T07:30:12;2.83;;;1.90;;
12966;SDS011;6548;49.996;8.238;2023-02-28T07:32:38;2.30;;;2.10;;
12966;SDS011;6548;49.996;8.238;2023-02-28T07:35:04;3.30;;;2.45;;
12966;SDS011;6548;49.996;8.238;2023-02-28T07:37:30;2.35;;;1.95;;
12966;SDS011;6548;49.996;8.238;2023-02-28T07:40:02;2.92;;;2.55;;
12966;SDS011;6548;49.996;8.238;2023-02-28T07:42:31;1.88;;;1.48;;
12966;SDS011;6548;49.996;8.238;2023-02-28T07:44:56;3.38;;;2.25;;
12966;SDS011;6548;49.996;8.238;2023-02-28T07:47:24;4.75;;;2.55;;
12966;SDS011;6548;49.996;8.238;2023-02-28T07:49:49;3.72;;;2.15;;
12966;SDS011;6548;49.996;8.238;2023-02-28T07:52:15;3.33;;;2.55;;
12966;SDS011;6548;49.996;8.238;2023-02-28T07:54:40;3.67;;;2.13;;
12966;SDS011;6548;49.996;8.238;2023-02-28T07:57:06;2.58;;;1.77;;
12966;SDS011;6548;49.996;8.238;2023-02-28T07:59:31;4.80;;;2.50;;
12966;SDS011;6548;49.996;8.238;2023-02-28T08:01:57;3.38;;;1.98;;
12966;SDS011;6548;49.996;8.238;2023-02-28T08:04:23;4.47;;;3.17;;
12966;SDS011;6548;49.996;8.238;2023-02-28T08:06:49;5.93;;;3.28;;
12966;SDS011;6548;49.996;8.238;2023-02-28T08:09:17;4.57;;;1.98;;
12966;SDS011;6548;49.996;8.238;2023-02-28T08:11:42;3.45;;;2.35;;
12966;SDS011;6548;49.996;8.238;2023-02-28T08:14:08;4.85;;;2.95;;
12966;SDS011;6548;49.996;8.238;2023-02-28T08:16:33;3.40;;;2.40;;
12966;SDS011;6548;49.996;8.238;2023-02-28T08:18:59;3.47;;;2.13;;
12966;SDS011;6548;49.996;8.238;2023-02-28T08:21:24;1.75;;;1.65;;
12966;SDS011;6548;49.996;8.238;2023-02-28T08:23:50;8.02;;;2.70;;
12966;SDS011;6548;49.996;8.238;2023-02-28T08:26:16;4.18;;;2.90;;
12966;SDS011;6548;49.996;8.238;2023-02-28T08:28:43;7.75;;;3.33;;
12966;SDS011;6548;49.996;8.238;2023-02-28T08:31:10;3.92;;;2.35;;
12966;SDS011;6548;49.996;8.238;2023-02-28T08:33:38;5.72;;;3.03;;
12966;SDS011;6548;49.996;8.238;2023-02-28T08:36:05;2.83;;;2.13;;
12966;SDS011;6548;49.996;8.238;2023-02-28T08:38:31;4.00;;;1.90;;
12966;SDS011;6548;49.996;8.238;2023-02-28T08:40:57;2.00;;;1.48;;
12966;SDS011;6548;49.996;8.238;2023-02-28T08:43:32;3.15;;;2.80;;
12966;SDS011;6548;49.996;8.238;2023-02-28T08:45:58;3.45;;;2.67;;
12966;SDS011;6548;49.996;8.238;2023-02-28T08:48:24;5.22;;;3.00;;
12966;SDS011;6548;49.996;8.238;2023-02-28T08:50:59;5.70;;;2.92;;
12966;SDS011;6548;49.996;8.238;2023-02-28T08:53:26;4.70;;;3.15;;
12966;SDS011;6548;49.996;8.238;2023-02-28T08:55:59;4.65;;;2.92;;
12966;SDS011;6548;49.996;8.238;2023-02-28T08:58:26;3.83;;;3.20;;
12966;SDS011;6548;49.996;8.238;2023-02-28T09:00:52;4.72;;;2.83;;
12966;SDS011;6548;49.996;8.238;2023-02-28T09:03:18;6.72;;;3.28;;
12966;SDS011;6548;49.996;8.238;2023-02-28T09:08:19;3.85;;;2.15;;
12966;SDS011;6548;49.996;8.238;2023-02-28T09:10:45;5.15;;;2.88;;
12966;SDS011;6548;49.996;8.238;2023-02-28T09:13:10;5.20;;;3.50;;
12966;SDS011;6548;49.996;8.238;2023-02-28T09:15:39;5.53;;;2.90;;
12966;SDS011;6548;49.996;8.238;2023-02-28T09:18:05;3.47;;;2.35;;
12966;SDS011;6548;49.996;8.238;2023-02-28T09:20:30;3.05;;;2.15;;
12966;SDS011;6548;49.996;8.238;2023-02-28T09:22:56;2.78;;;2.58;;
12966;SDS011;6548;49.996;8.238;2023-02-28T09:25:21;7.00;;;3.38;;
12966;SDS011;6548;49.996;8.238;2023-02-28T09:27:47;5.68;;;3.10;;
12966;SDS011;6548;49.996;8.238;2023-02-28T09:30:13;4.28;;;3.00;;
12966;SDS011;6548;49.996;8.238;2023-02-28T09:32:38;4.93;;;3.05;;
12966;SDS011;6548;49.996;8.238;2023-02-28T09:35:04;4.55;;;2.70;;
12966;SDS011;6548;49.996;8.238;2023-02-28T09:37:30;4.63;;;3.03;;
12966;SDS011;6548;49.996;8.238;2023-02-28T09:39:56;4.22;;;2.30;;
12966;SDS011;6548;49.996;8.238;2023-02-28T09:42:24;3.78;;;2.65;;
12966;SDS011;6548;49.996;8.238;2023-02-28T09:44:55;8.27;;;3.20;;
12966;SDS011;6548;49.996;8.238;2023-02-28T09:52:51;5.57;;;3.17;;
12966;SDS011;6548;49.996;8.238;2023-02-28T09:55:25;4.22;;;2.83;;
12966;SDS011;6548;49.996;8.238;2023-02-28T09:57:56;3.55;;;3.25;;
12966;SDS011;6548;49.996;8.238;2023-02-28T10:00:28;5.70;;;3.17;;
12966;SDS011;6548;49.996;8.238;2023-02-28T10:08:41;2.95;;;2.53;;
12966;SDS011;6548;49.996;8.238;2023-02-28T10:11:25;2.35;;;2.15;;
12966;SDS011;6548;49.996;8.238;2023-02-28T10:13:59;3.53;;;2.72;;
12966;SDS011;6548;49.996;8.238;2023-02-28T10:19:26;4.35;;;3.10;;
12966;SDS011;6548;49.996;8.238;2023-02-28T10:22:03;3.33;;;2.40;;
12966;SDS011;6548;49.996;8.238;2023-02-28T10:24:40;3.50;;;2.40;;
12966;SDS011;6548;49.996;8.238;2023-02-28T10:29:51;4.40;;;3.13;;
12966;SDS011;6548;49.996;8.238;2023-02-28T10:32:19;4.77;;;2.87;;
12966;SDS011;6548;49.996;8.238;2023-02-28T10:34:51;4.00;;;2.58;;
12966;SDS011;6548;49.996;8.238;2023-02-28T10:37:42;3.72;;;2.13;;
12966;SDS011;6548;49.996;8.238;2023-02-28T10:45:28;5.57;;;2.33;;
12966;SDS011;6548;49.996;8.238;2023-02-28T10:50:59;2.72;;;2.20;;
12966;SDS011;6548;49.996;8.238;2023-02-28T10:53:33;5.40;;;3.35;;
12966;SDS011;6548;49.996;8.238;2023-02-28T10:58:50;4.68;;;3.30;;
12966;SDS011;6548;49.996;8.238;2023-02-28T11:01:23;4.03;;;3.10;;
12966;SDS011;6548;49.996;8.238;2023-02-28T11:03:55;4.20;;;2.38;;
12966;SDS011;6548;49.996;8.238;2023-02-28T11:06:23;2.85;;;2.15;;
12966;SDS011;6548;49.996;8.238;2023-02-28T11:08:58;3.25;;;2.72;;
12966;SDS011;6548;49.996;8.238;2023-02-28T11:11:45;6.85;;;3.47;;
12966;SDS011;6548;49.996;8.238;2023-02-28T11:14:17;4.43;;;3.25;;
12966;SDS011;6548;49.996;8.238;2023-02-28T11:16:52;6.18;;;3.03;;
12966;SDS011;6548;49.996;8.238;2023-02-28T11:19:20;5.47;;;3.55;;
12966;SDS011;6548;49.996;8.238;2023-02-28T11:22:11;8.43;;;3.75;;
12966;SDS011;6548;49.996;8.238;2023-02-28T11:24:47;3.65;;;2.92;;
12966;SDS011;6548;49.996;8.238;2023-02-28T11:29:54;5.47;;;3.63;;
12966;SDS011;6548;49.996;8.238;2023-02-28T11:32:21;5.70;;;3.58;;
12966;SDS011;6548;49.996;8.238;2023-02-28T11:35:02;7.07;;;3.42;;
12966;SDS011;6548;49.996;8.238;2023-02-28T11:37:29;5.75;;;3.25;;
12966;SDS011;6548;49.996;8.238;2023-02-28T11:39:56;5.55;;;4.00;;
12966;SDS011;6548;49.996;8.238;2023-02-28T11:47:32;5.32;;;2.88;;
12966;SDS011;6548;49.996;8.238;2023-02-28T11:53:06;5.63;;;3.38;;
12966;SDS011;6548;49.996;8.238;2023-02-28T11:55:45;4.68;;;3.22;;
12966;SDS011;6548;49.996;8.238;2023-02-28T12:06:26;3.92;;;2.80;;
12966;SDS011;6548;49.996;8.238;2023-02-28T12:09:02;4.32;;;3.60;;
12966;SDS011;6548;49.996;8.238;2023-02-28T12:11:47;3.92;;;2.72;;
12966;SDS011;6548;49.996;8.238;2023-02-28T12:14:22;5.60;;;3.42;;
12966;SDS011;6548;49.996;8.238;2023-02-28T12:22:27;3.75;;;3.20;;
12966;SDS011;6548;49.996;8.238;2023-02-28T12:27:52;5.68;;;3.08;;
12966;SDS011;6548;49.996;8.238;2023-02-28T12:30:34;4.95;;;3.40;;
12966;SDS011;6548;49.996;8.238;2023-02-28T12:33:04;6.28;;;4.03;;
12966;SDS011;6548;49.996;8.238;2023-02-28T12:35:41;5.05;;;3.38;;
12966;SDS011;6548;49.996;8.238;2023-02-28T12:38:16;6.80;;;3.50;;
12966;SDS011;6548;49.996;8.238;2023-02-28T12:40:50;5.00;;;3.70;;
12966;SDS011;6548;49.996;8.238;2023-02-28T12:43:19;7.20;;;3.88;;
12966;SDS011;6548;49.996;8.238;2023-02-28T12:45:55;4.20;;;3.13;;
12966;SDS011;6548;49.996;8.238;2023-02-28T12:48:28;4.30;;;3.38;;
12966;SDS011;6548;49.996;8.238;2023-02-28T12:51:01;7.15;;;3.90;;
12966;SDS011;6548;49.996;8.238;2023-02-28T12:56:44;4.82;;;3.88;;
12966;SDS011;6548;49.996;8.238;2023-02-28T12:59:37;5.57;;;4.35;;
12966;SDS011;6548;49.996;8.238;2023-02-28T13:05:00;6.78;;;4.13;;
12966;SDS011;6548;49.996;8.238;2023-02-28T13:10:21;3.95;;;3.17;;
12966;SDS011;6548;49.996;8.238;2023-02-28T13:12:48;3.90;;;2.85;;
12966;SDS011;6548;49.996;8.238;2023-02-28T13:15:22;5.25;;;3.30;;
12966;SDS011;6548;49.996;8.238;2023-02-28T13:17:53;5.35;;;4.03;;
12966;SDS011;6548;49.996;8.238;2023-02-28T13:20:23;5.38;;;3.58;;
12966;SDS011;6548;49.996;8.238;2023-02-28T13:22:54;4.57;;;2.83;;
12966;SDS011;6548;49.996;8.238;2023-02-28T13:27:46;6.45;;;4.15;;
12966;SDS011;6548;49.996;8.238;2023-02-28T13:34:11;7.93;;;4.28;;
12966;SDS011;6548;49.996;8.238;2023-02-28T13:38:50;5.40;;;3.63;;
12966;SDS011;6548;49.996;8.238;2023-02-28T13:46:31;5.90;;;3.33;;
12966;SDS011;6548;49.996;8.238;2023-02-28T13:51:44;7.40;;;4.38;;
12966;SDS011;6548;49.996;8.238;2023-02-28T13:54:26;5.25;;;4.25;;
12966;SDS011;6548;49.996;8.238;2023-02-28T14:03:32;6.07;;;4.47;;
12966;SDS011;6548;49.996;8.238;2023-02-28T14:06:09;8.23;;;4.60;;
12966;SDS011;6548;49.996;8.238;2023-02-28T14:08:47;5.38;;;4.03;;
12966;SDS011;6548;49.996;8.238;2023-02-28T14:11:30;6.45;;;3.95;;
12966;SDS011;6548;49.996;8.238;2023-02-28T14:13:58;7.18;;;4.70;;
12966;SDS011;6548;49.996;8.238;2023-02-28T14:16:25;6.72;;;4.50;;
12966;SDS011;6548;49.996;8.238;2023-02-28T14:19:43;4.93;;;3.95;;
12966;SDS011;6548;49.996;8.238;2023-02-28T14:22:14;6.78;;;4.35;;
12966;SDS011;6548;49.996;8.238;2023-02-28T14:30:27;4.80;;;3.97;;
12966;SDS011;6548;49.996;8.238;2023-02-28T14:38:27;7.13;;;4.85;;
12966;SDS011;6548;49.996;8.238;2023-02-28T14:41:03;6.18;;;4.40;;
12966;SDS011;6548;49.996;8.238;2023-02-28T14:43:31;5.78;;;4.43;;
12966;SDS011;6548;49.996;8.238;2023-02-28T14:45:58;7.40;;;4.57;;
12966;SDS011;6548;49.996;8.238;2023-02-28T14:48:26;6.95;;;4.32;;
12966;SDS011;6548;49.996;8.238;2023-02-28T14:50:56;4.93;;;4.25;;
12966;SDS011;6548;49.996;8.238;2023-02-28T14:53:25;6.90;;;4.60;;
12966;SDS011;6548;49.996;8.238;2023-02-28T14:55:53;6.55;;;4.57;;
12966;SDS011;6548;49.996;8.238;2023-02-28T14:58:30;6.70;;;4.50;;
12966;SDS011;6548;49.996;8.238;2023-02-28T15:00:59;8.15;;;4.85;;
12966;SDS011;6548;49.996;8.238;2023-02-28T15:05:55;10.07;;;5.28;;
12966;SDS011;6548;49.996;8.238;2023-02-28T15:08:22;6.38;;;4.50;;
12966;SDS011;6548;49.996;8.238;2023-02-28T15:10:56;8.82;;;5.03;;
12966;SDS011;6548;49.996;8.238;2023-02-28T15:13:28;6.28;;;4.50;;
12966;SDS011;6548;49.996;8.238;2023-02-28T15:16:19;6.95;;;3.88;;
12966;SDS011;6548;49.996;8.238;2023-02-28T15:21:46;13.45;;;5.63;;
12966;SDS011;6548;49.996;8.238;2023-02-28T15:27:25;6.30;;;4.55;;
12966;SDS011;6548;49.996;8.238;2023-02-28T15:29:56;6.03;;;4.65;;
12966;SDS011;6548;49.996;8.238;2023-02-28T15:37:54;6.65;;;4.32;;
12966;SDS011;6548;49.996;8.238;2023-02-28T15:43:06;7.57;;;5.40;;
12966;SDS011;6548;49.996;8.238;2023-02-28T15:45:33;7.70;;;4.65;;
12966;SDS011;6548;49.996;8.238;2023-02-28T15:48:03;6.18;;;4.45;;
12966;SDS011;6548;49.996;8.238;2023-02-28T15:50:30;7.00;;;4.70;;
12966;SDS011;6548;49.996;8.238;2023-02-28T15:52:56;10.73;;;5.20;;
12966;SDS011;6548;49.996;8.238;2023-02-28T15:55:23;8.57;;;5.78;;
12966;SDS011;6548;49.996;8.238;2023-02-28T15:57:53;12.93;;;5.50;;
12966;SDS011;6548;49.996;8.238;2023-02-28T16:00:24;9.75;;;5.15;;
12966;SDS011;6548;49.996;8.238;2023-02-28T16:02:51;7.10;;;5.05;;
12966;SDS011;6548;49.996;8.238;2023-02-28T16:05:22;10.65;;;5.88;;
12966;SDS011;6548;49.996;8.238;2023-02-28T16:07:58;6.65;;;3.70;;
12966;SDS011;6548;49.996;8.238;2023-02-28T16:10:38;6.75;;;4.20;;
12966;SDS011;6548;49.996;8.238;2023-02-28T16:13:04;6.40;;;5.05;;
12966;SDS011;6548;49.996;8.238;2023-02-28T16:15:30;8.02;;;4.80;;
12966;SDS011;6548;49.996;8.238;2023-02-28T16:18:07;6.65;;;4.38;;
12966;SDS011;6548;49.996;8.238;2023-02-28T16:20:35;8.60;;;5.05;;
12966;SDS011;6548;49.996;8.238;2023-02-28T16:23:01;8.75;;;5.22;;
12966;SDS011;6548;49.996;8.238;2023-02-28T16:25:38;9.90;;;4.78;;
12966;SDS011;6548;49.996;8.238;2023-02-28T16:28:18;6.35;;;4.50;;
12966;SDS011;6548;49.996;8.238;2023-02-28T16:30:46;6.90;;;5.03;;
12966;SDS011;6548;49.996;8.238;2023-02-28T16:33:11;7.45;;;4.70;;
12966;SDS011;6548;49.996;8.238;2023-02-28T16:35:37;5.45;;;4.40;;
12966;SDS011;6548;49.996;8.238;2023-02-28T16:38:02;5.57;;;4.28;;
12966;SDS011;6548;49.996;8.238;2023-02-28T16:40:28;6.57;;;4.50;;
12966;SDS011;6548;49.996;8.238;2023-02-28T16:42:59;6.60;;;4.75;;
12966;SDS011;6548;49.996;8.238;2023-02-28T16:45:27;6.78;;;4.32;;
12966;SDS011;6548;49.996;8.238;2023-02-28T16:47:53;9.77;;;4.95;;
12966;SDS011;6548;49.996;8.238;2023-02-28T16:50:21;9.48;;;5.22;;
12966;SDS011;6548;49.996;8.238;2023-02-28T16:52:48;7.85;;;4.80;;
12966;SDS011;6548;49.996;8.238;2023-02-28T16:55:16;8.90;;;5.22;;
12966;SDS011;6548;49.996;8.238;2023-02-28T16:57:43;8.43;;;4.72;;
12966;SDS011;6548;49.996;8.238;2023-02-28T17:00:13;7.63;;;4.88;;
12966;SDS011;6548;49.996;8.238;2023-02-28T17:02:39;8.52;;;4.50;;
12966;SDS011;6548;49.996;8.238;2023-02-28T17:05:05;7.05;;;4.60;;
12966;SDS011;6548;49.996;8.238;2023-02-28T17:07:31;7.57;;;4.43;;
12966;SDS011;6548;49.996;8.238;2023-02-28T17:09:57;8.57;;;4.30;;
12966;SDS011;6548;49.996;8.238;2023-02-28T17:12:23;7.68;;;5.32;;
12966;SDS011;6548;49.996;8.238;2023-02-28T17:14:48;9.48;;;4.68;;
12966;SDS011;6548;49.996;8.238;2023-02-28T17:17:18;7.30;;;4.63;;
12966;SDS011;6548;49.996;8.238;2023-02-28T17:22:12;9.98;;;4.78;;
12966;SDS011;6548;49.996;8.238;2023-02-28T17:24:38;6.43;;;4.53;;
12966;SDS011;6548;49.996;8.238;2023-02-28T17:27:04;10.02;;;4.55;;
12966;SDS011;6548;49.996;8.238;2023-02-28T17:29:30;9.68;;;5.18;;
12966;SDS011;6548;49.996;8.238;2023-02-28T17:31:55;6.88;;;5.03;;
12966;SDS011;6548;49.996;8.238;2023-02-28T17:34:21;12.48;;;6.05;;
12966;SDS011;6548;49.996;8.238;2023-02-28T17:36:48;7.70;;;5.38;;
12966;SDS011;6548;49.996;8.238;2023-02-28T17:39:17;7.18;;;4.97;;
12966;SDS011;6548;49.996;8.238;2023-02-28T17:41:58;8.43;;;4.55;;
12966;SDS011;6548;49.996;8.238;2023-02-28T17:44:24;8.52;;;4.85;;
12966;SDS011;6548;49.996;8.238;2023-02-28T17:46:50;10.32;;;5.07;;
12966;SDS011;6548;49.996;8.238;2023-02-28T17:49:18;6.07;;;4.18;;